sensor_id;sensor_type;location;lat;lon;timestamp;P1;durP1;ratioP1;P2;durP2;ratioP2
21941;SDS011;11135;54.192;15.670;2022-12-24T00:00:20;6.05;;;3.75;;
21941;SDS011;11135;54.192;15.670;2022-12-24T00:03:45;12.90;;;4.38;;
21941;SDS011;11135;54.192;15.670;2022-12-24T00:06:50;9.50;;;4.18;;
21941;SDS011;11135;54.192;15.670;2022-12-24T00:09:55;8.25;;;3.80;;
21941;SDS011;11135;54.192;15.670;2022-12-24T00:13:04;12.18;;;5.00;;
21941;SDS011;11135;54.192;15.670;2022-12-24T00:16:09;8.73;;;3.58;;
21941;SDS011;11135;54.192;15.670;2022-12-24T00:19:14;9.00;;;4.20;;
21941;SDS011;11135;54.192;15.670;2022-12-24T00:22:19;10.60;;;3.88;;
21941;SDS011;11135;54.192;15.670;2022-12-24T00:25:24;7.43;;;3.65;;
21941;SDS011;11135;54.192;15.670;2022-12-24T00:28:32;8.52;;;3.70;;
21941;SDS011;11135;54.192;15.670;2022-12-24T00:31:37;6.38;;;3.13;;
21941;SDS011;11135;54.192;15.670;2022-12-24T00:34:42;3.97;;;2.10;;
21941;SDS011;11135;54.192;15.670;2022-12-24T00:37:47;7.15;;;3.22;;
21941;SDS011;11135;54.192;15.670;2022-12-24T00:40:56;9.57;;;4.43;;
21941;SDS011;11135;54.192;15.670;2022-12-24T00:44:05;10.15;;;4.00;;
21941;SDS011;11135;54.192;15.670;2022-12-24T00:47:11;7.93;;;3.35;;
21941;SDS011;11135;54.192;15.670;2022-12-24T00:50:16;8.73;;;3.90;;
21941;SDS011;11135;54.192;15.670;2022-12-24T00:53:21;6.07;;;3.42;;
21941;SDS011;11135;54.192;15.670;2022-12-24T00:56:28;4.97;;;2.78;;
21941;SDS011;11135;54.192;15.670;2022-12-24T00:59:35;4.53;;;2.55;;
21941;SDS011;11135;54.192;15.670;2022-12-24T01:02:40;7.32;;;3.35;;
21941;SDS011;11135;54.192;15.670;2022-12-24T01:05:46;4.68;;;2.58;;
21941;SDS011;11135;54.192;15.670;2022-12-24T01:08:51;6.28;;;2.60;;
21941;SDS011;11135;54.192;15.670;2022-12-24T01:11:56;3.85;;;2.33;;
21941;SDS011;11135;54.192;15.670;2022-12-24T01:15:04;6.47;;;2.53;;
21941;SDS011;11135;54.192;15.670;2022-12-24T01:18:09;6.70;;;2.70;;
21941;SDS011;11135;54.192;15.670;2022-12-24T01:21:14;7.93;;;3.47;;
21941;SDS011;11135;54.192;15.670;2022-12-24T01:24:19;10.50;;;4.03;;
21941;SDS011;11135;54.192;15.670;2022-12-24T01:27:24;16.30;;;7.43;;
21941;SDS011;11135;54.192;15.670;2022-12-24T01:30:32;17.17;;;7.35;;
21941;SDS011;11135;54.192;15.670;2022-12-24T01:33:37;7.03;;;3.55;;
21941;SDS011;11135;54.192;15.670;2022-12-24T01:36:42;7.05;;;3.60;;
21941;SDS011;11135;54.192;15.670;2022-12-24T01:39:48;8.77;;;4.60;;
21941;SDS011;11135;54.192;15.670;2022-12-24T01:43:14;11.98;;;6.63;;
21941;SDS011;11135;54.192;15.670;2022-12-24T01:46:31;5.90;;;3.28;;
21941;SDS011;11135;54.192;15.670;2022-12-24T01:49:38;5.07;;;2.40;;
21941;SDS011;11135;54.192;15.670;2022-12-24T01:52:44;7.05;;;2.60;;
21941;SDS011;11135;54.192;15.670;2022-12-24T01:55:51;5.00;;;2.20;;
21941;SDS011;11135;54.192;15.670;2022-12-24T01:58:59;5.38;;;2.42;;
21941;SDS011;11135;54.192;15.670;2022-12-24T02:02:08;6.43;;;2.50;;
21941;SDS011;11135;54.192;15.670;2022-12-24T02:05:15;6.40;;;3.08;;
21941;SDS011;11135;54.192;15.670;2022-12-24T02:08:22;6.85;;;3.10;;
21941;SDS011;11135;54.192;15.670;2022-12-24T02:11:41;7.03;;;2.60;;
21941;SDS011;11135;54.192;15.670;2022-12-24T02:14:47;7.47;;;2.92;;
21941;SDS011;11135;54.192;15.670;2022-12-24T02:17:56;6.63;;;2.75;;
21941;SDS011;11135;54.192;15.670;2022-12-24T02:21:19;4.87;;;2.93;;
21941;SDS011;11135;54.192;15.670;2022-12-24T02:24:42;3.25;;;1.95;;
21941;SDS011;11135;54.192;15.670;2022-12-24T02:27:52;7.43;;;2.42;;
21941;SDS011;11135;54.192;15.670;2022-12-24T02:31:03;5.40;;;2.17;;
21941;SDS011;11135;54.192;15.670;2022-12-24T02:34:11;5.90;;;2.20;;
21941;SDS011;11135;54.192;15.670;2022-12-24T02:37:21;4.63;;;2.13;;
21941;SDS011;11135;54.192;15.670;2022-12-24T02:40:27;5.55;;;2.35;;
21941;SDS011;11135;54.192;15.670;2022-12-24T02:43:34;4.75;;;2.15;;
21941;SDS011;11135;54.192;15.670;2022-12-24T02:46:44;5.60;;;2.25;;
21941;SDS011;11135;54.192;15.670;2022-12-24T02:49:50;8.65;;;2.80;;
21941;SDS011;11135;54.192;15.670;2022-12-24T02:52:56;6.20;;;3.38;;
21941;SDS011;11135;54.192;15.670;2022-12-24T03:05:53;5.68;;;2.88;;
21941;SDS011;11135;54.192;15.670;2022-12-24T03:09:04;4.68;;;1.88;;
21941;SDS011;11135;54.192;15.670;2022-12-24T03:12:14;5.57;;;2.20;;
21941;SDS011;11135;54.192;15.670;2022-12-24T03:15:22;4.57;;;1.90;;
21941;SDS011;11135;54.192;15.670;2022-12-24T03:18:28;6.30;;;2.47;;
21941;SDS011;11135;54.192;15.670;2022-12-24T03:21:39;7.63;;;2.83;;
21941;SDS011;11135;54.192;15.670;2022-12-24T03:24:45;6.20;;;2.35;;
21941;SDS011;11135;54.192;15.670;2022-12-24T03:27:51;4.80;;;2.60;;
21941;SDS011;11135;54.192;15.670;2022-12-24T03:30:59;4.22;;;2.45;;
21941;SDS011;11135;54.192;15.670;2022-12-24T03:34:05;4.97;;;2.58;;
21941;SDS011;11135;54.192;15.670;2022-12-24T03:37:12;4.68;;;2.28;;
21941;SDS011;11135;54.192;15.670;2022-12-24T03:40:17;3.88;;;1.98;;
21941;SDS011;11135;54.192;15.670;2022-12-24T03:43:22;5.05;;;2.28;;
21941;SDS011;11135;54.192;15.670;2022-12-24T03:46:28;6.25;;;2.50;;
21941;SDS011;11135;54.192;15.670;2022-12-24T03:49:33;7.55;;;2.55;;
21941;SDS011;11135;54.192;15.670;2022-12-24T03:52:41;6.63;;;3.28;;
21941;SDS011;11135;54.192;15.670;2022-12-24T03:55:46;9.40;;;3.50;;
21941;SDS011;11135;54.192;15.670;2022-12-24T03:58:51;4.68;;;2.28;;
21941;SDS011;11135;54.192;15.670;2022-12-24T04:01:56;6.03;;;2.03;;
21941;SDS011;11135;54.192;15.670;2022-12-24T04:05:02;4.55;;;2.40;;
21941;SDS011;11135;54.192;15.670;2022-12-24T04:08:09;6.15;;;2.85;;
21941;SDS011;11135;54.192;15.670;2022-12-24T04:11:15;6.57;;;2.72;;
21941;SDS011;11135;54.192;15.670;2022-12-24T04:14:21;8.70;;;3.33;;
21941;SDS011;11135;54.192;15.670;2022-12-24T04:17:26;6.55;;;3.38;;
21941;SDS011;11135;54.192;15.670;2022-12-24T04:20:31;12.02;;;4.72;;
21941;SDS011;11135;54.192;15.670;2022-12-24T04:23:43;10.98;;;4.05;;
21941;SDS011;11135;54.192;15.670;2022-12-24T04:26:48;13.77;;;5.13;;
21941;SDS011;11135;54.192;15.670;2022-12-24T04:29:54;11.05;;;5.30;;
21941;SDS011;11135;54.192;15.670;2022-12-24T04:32:58;10.70;;;4.53;;
21941;SDS011;11135;54.192;15.670;2022-12-24T04:36:04;8.80;;;3.95;;
21941;SDS011;11135;54.192;15.670;2022-12-24T04:39:12;7.43;;;3.25;;
21941;SDS011;11135;54.192;15.670;2022-12-24T04:42:17;6.82;;;3.85;;
21941;SDS011;11135;54.192;15.670;2022-12-24T04:45:22;6.45;;;3.50;;
21941;SDS011;11135;54.192;15.670;2022-12-24T04:48:28;7.50;;;3.83;;
21941;SDS011;11135;54.192;15.670;2022-12-24T04:51:34;12.40;;;4.65;;
21941;SDS011;11135;54.192;15.670;2022-12-24T04:54:42;13.73;;;5.95;;
21941;SDS011;11135;54.192;15.670;2022-12-24T04:57:47;13.25;;;6.20;;
21941;SDS011;11135;54.192;15.670;2022-12-24T05:00:54;12.93;;;5.88;;
21941;SDS011;11135;54.192;15.670;2022-12-24T05:03:59;9.25;;;4.43;;
21941;SDS011;11135;54.192;15.670;2022-12-24T05:07:04;10.30;;;4.82;;
21941;SDS011;11135;54.192;15.670;2022-12-24T05:10:14;8.68;;;4.53;;
21941;SDS011;11135;54.192;15.670;2022-12-24T05:13:19;9.05;;;5.82;;
21941;SDS011;11135;54.192;15.670;2022-12-24T05:16:30;8.60;;;6.43;;
21941;SDS011;11135;54.192;15.670;2022-12-24T05:19:35;12.63;;;8.32;;
21941;SDS011;11135;54.192;15.670;2022-12-24T05:22:40;8.95;;;5.40;;
21941;SDS011;11135;54.192;15.670;2022-12-24T05:26:01;8.25;;;4.07;;
21941;SDS011;11135;54.192;15.670;2022-12-24T05:29:18;7.65;;;4.38;;
21941;SDS011;11135;54.192;15.670;2022-12-24T05:32:23;7.90;;;4.90;;
21941;SDS011;11135;54.192;15.670;2022-12-24T05:35:30;8.65;;;5.10;;
21941;SDS011;11135;54.192;15.670;2022-12-24T05:38:36;9.65;;;4.20;;
21941;SDS011;11135;54.192;15.670;2022-12-24T05:41:44;15.02;;;8.57;;
21941;SDS011;11135;54.192;15.670;2022-12-24T05:44:50;13.90;;;7.28;;
21941;SDS011;11135;54.192;15.670;2022-12-24T05:47:55;17.55;;;9.98;;
21941;SDS011;11135;54.192;15.670;2022-12-24T05:51:02;14.82;;;8.70;;
21941;SDS011;11135;54.192;15.670;2022-12-24T05:54:07;15.55;;;8.32;;
21941;SDS011;11135;54.192;15.670;2022-12-24T05:57:15;12.30;;;7.25;;
21941;SDS011;11135;54.192;15.670;2022-12-24T06:00:20;9.93;;;5.38;;
21941;SDS011;11135;54.192;15.670;2022-12-24T06:03:25;22.08;;;13.75;;
21941;SDS011;11135;54.192;15.670;2022-12-24T06:06:31;18.75;;;11.20;;
21941;SDS011;11135;54.192;15.670;2022-12-24T06:09:36;20.80;;;12.23;;
21941;SDS011;11135;54.192;15.670;2022-12-24T06:12:44;11.68;;;7.32;;
21941;SDS011;11135;54.192;15.670;2022-12-24T06:15:53;10.13;;;5.75;;
21941;SDS011;11135;54.192;15.670;2022-12-24T06:18:59;10.38;;;7.30;;
21941;SDS011;11135;54.192;15.670;2022-12-24T06:22:04;22.60;;;12.43;;
21941;SDS011;11135;54.192;15.670;2022-12-24T06:25:09;16.42;;;10.35;;
21941;SDS011;11135;54.192;15.670;2022-12-24T06:28:17;16.52;;;9.07;;
21941;SDS011;11135;54.192;15.670;2022-12-24T06:31:23;21.00;;;11.73;;
21941;SDS011;11135;54.192;15.670;2022-12-24T06:34:30;60.90;;;32.35;;
21941;SDS011;11135;54.192;15.670;2022-12-24T06:37:35;37.17;;;19.77;;
21941;SDS011;11135;54.192;15.670;2022-12-24T06:40:42;13.90;;;7.32;;
21941;SDS011;11135;54.192;15.670;2022-12-24T06:43:50;11.32;;;5.47;;
21941;SDS011;11135;54.192;15.670;2022-12-24T06:46:56;8.00;;;4.40;;
21941;SDS011;11135;54.192;15.670;2022-12-24T06:50:01;14.23;;;6.90;;
21941;SDS011;11135;54.192;15.670;2022-12-24T06:53:07;10.60;;;5.25;;
21941;SDS011;11135;54.192;15.670;2022-12-24T06:56:12;18.15;;;9.57;;
21941;SDS011;11135;54.192;15.670;2022-12-24T06:59:20;20.50;;;10.55;;
21941;SDS011;11135;54.192;15.670;2022-12-24T07:02:28;37.15;;;22.90;;
21941;SDS011;11135;54.192;15.670;2022-12-24T07:05:34;25.02;;;13.13;;
21941;SDS011;11135;54.192;15.670;2022-12-24T07:08:39;14.73;;;7.22;;
21941;SDS011;11135;54.192;15.670;2022-12-24T07:11:44;10.27;;;6.07;;
21941;SDS011;11135;54.192;15.670;2022-12-24T07:14:51;11.85;;;7.10;;
21941;SDS011;11135;54.192;15.670;2022-12-24T07:17:57;12.23;;;6.75;;
21941;SDS011;11135;54.192;15.670;2022-12-24T07:21:02;13.23;;;6.72;;
21941;SDS011;11135;54.192;15.670;2022-12-24T07:24:10;10.98;;;5.85;;
21941;SDS011;11135;54.192;15.670;2022-12-24T07:27:15;10.13;;;5.22;;
21941;SDS011;11135;54.192;15.670;2022-12-24T07:30:23;9.65;;;5.53;;
21941;SDS011;11135;54.192;15.670;2022-12-24T07:33:28;8.70;;;4.68;;
21941;SDS011;11135;54.192;15.670;2022-12-24T07:36:33;10.68;;;5.40;;
21941;SDS011;11135;54.192;15.670;2022-12-24T07:39:38;9.93;;;4.80;;
21941;SDS011;11135;54.192;15.670;2022-12-24T07:42:43;13.77;;;8.38;;
21941;SDS011;11135;54.192;15.670;2022-12-24T07:45:52;11.32;;;6.80;;
21941;SDS011;11135;54.192;15.670;2022-12-24T07:48:58;9.40;;;5.40;;
21941;SDS011;11135;54.192;15.670;2022-12-24T07:52:03;13.57;;;6.82;;
21941;SDS011;11135;54.192;15.670;2022-12-24T07:55:08;11.07;;;6.40;;
21941;SDS011;11135;54.192;15.670;2022-12-24T07:58:13;13.25;;;6.70;;
21941;SDS011;11135;54.192;15.670;2022-12-24T08:01:21;12.20;;;6.82;;
21941;SDS011;11135;54.192;15.670;2022-12-24T08:04:26;12.98;;;7.45;;
21941;SDS011;11135;54.192;15.670;2022-12-24T08:07:32;10.30;;;5.65;;
21941;SDS011;11135;54.192;15.670;2022-12-24T08:10:37;7.90;;;4.07;;
21941;SDS011;11135;54.192;15.670;2022-12-24T08:13:43;7.97;;;3.80;;
21941;SDS011;11135;54.192;15.670;2022-12-24T08:16:50;8.98;;;4.75;;
21941;SDS011;11135;54.192;15.670;2022-12-24T08:19:55;8.68;;;4.28;;
21941;SDS011;11135;54.192;15.670;2022-12-24T08:23:00;13.43;;;7.10;;
21941;SDS011;11135;54.192;15.670;2022-12-24T08:26:06;17.50;;;9.13;;
21941;SDS011;11135;54.192;15.670;2022-12-24T08:29:11;19.75;;;9.40;;
21941;SDS011;11135;54.192;15.670;2022-12-24T08:32:19;13.63;;;7.20;;
21941;SDS011;11135;54.192;15.670;2022-12-24T08:35:24;11.52;;;6.55;;
21941;SDS011;11135;54.192;15.670;2022-12-24T08:38:29;12.73;;;8.23;;
21941;SDS011;11135;54.192;15.670;2022-12-24T08:41:34;12.43;;;8.57;;
21941;SDS011;11135;54.192;15.670;2022-12-24T08:44:40;11.82;;;7.95;;
21941;SDS011;11135;54.192;15.670;2022-12-24T08:47:47;12.07;;;7.28;;
21941;SDS011;11135;54.192;15.670;2022-12-24T08:50:52;12.15;;;6.80;;
21941;SDS011;11135;54.192;15.670;2022-12-24T08:53:57;12.77;;;7.00;;
21941;SDS011;11135;54.192;15.670;2022-12-24T08:57:02;13.07;;;7.57;;
21941;SDS011;11135;54.192;15.670;2022-12-24T09:00:08;13.68;;;6.18;;
21941;SDS011;11135;54.192;15.670;2022-12-24T09:03:16;11.10;;;6.18;;
21941;SDS011;11135;54.192;15.670;2022-12-24T09:06:28;12.05;;;6.57;;
21941;SDS011;11135;54.192;15.670;2022-12-24T09:09:35;10.15;;;6.07;;
21941;SDS011;11135;54.192;15.670;2022-12-24T09:12:40;8.50;;;4.95;;
21941;SDS011;11135;54.192;15.670;2022-12-24T09:15:51;8.23;;;5.03;;
21941;SDS011;11135;54.192;15.670;2022-12-24T09:18:58;10.48;;;4.65;;
21941;SDS011;11135;54.192;15.670;2022-12-24T09:22:04;12.27;;;5.82;;
21941;SDS011;11135;54.192;15.670;2022-12-24T09:25:09;14.98;;;7.25;;
21941;SDS011;11135;54.192;15.670;2022-12-24T09:28:14;11.88;;;8.07;;
21941;SDS011;11135;54.192;15.670;2022-12-24T09:31:19;11.13;;;7.68;;
21941;SDS011;11135;54.192;15.670;2022-12-24T09:34:28;11.15;;;7.55;;
21941;SDS011;11135;54.192;15.670;2022-12-24T09:37:33;13.00;;;8.05;;
21941;SDS011;11135;54.192;15.670;2022-12-24T09:40:38;14.38;;;10.02;;
21941;SDS011;11135;54.192;15.670;2022-12-24T09:43:44;19.38;;;12.60;;
21941;SDS011;11135;54.192;15.670;2022-12-24T09:46:50;7.32;;;5.25;;
21941;SDS011;11135;54.192;15.670;2022-12-24T09:49:59;7.32;;;4.68;;
21941;SDS011;11135;54.192;15.670;2022-12-24T09:53:09;8.32;;;4.60;;
21941;SDS011;11135;54.192;15.670;2022-12-24T09:56:18;10.07;;;5.50;;
21941;SDS011;11135;54.192;15.670;2022-12-24T09:59:24;11.75;;;6.32;;
21941;SDS011;11135;54.192;15.670;2022-12-24T10:02:30;15.60;;;7.63;;
21941;SDS011;11135;54.192;15.670;2022-12-24T10:05:40;9.65;;;6.80;;
21941;SDS011;11135;54.192;15.670;2022-12-24T10:08:56;7.15;;;5.25;;
21941;SDS011;11135;54.192;15.670;2022-12-24T10:12:05;10.52;;;7.53;;
21941;SDS011;11135;54.192;15.670;2022-12-24T10:15:16;11.43;;;6.13;;
21941;SDS011;11135;54.192;15.670;2022-12-24T10:18:25;7.80;;;4.90;;
21941;SDS011;11135;54.192;15.670;2022-12-24T10:21:38;8.50;;;4.55;;
21941;SDS011;11135;54.192;15.670;2022-12-24T10:24:47;12.20;;;7.22;;
21941;SDS011;11135;54.192;15.670;2022-12-24T10:27:56;9.57;;;5.68;;
21941;SDS011;11135;54.192;15.670;2022-12-24T10:31:04;8.50;;;4.90;;
21941;SDS011;11135;54.192;15.670;2022-12-24T10:34:11;7.10;;;2.95;;
21941;SDS011;11135;54.192;15.670;2022-12-24T10:37:21;7.35;;;3.80;;
21941;SDS011;11135;54.192;15.670;2022-12-24T10:40:30;7.57;;;3.30;;
21941;SDS011;11135;54.192;15.670;2022-12-24T10:43:36;5.18;;;3.30;;
21941;SDS011;11135;54.192;15.670;2022-12-24T10:46:43;5.40;;;3.03;;
21941;SDS011;11135;54.192;15.670;2022-12-24T10:49:51;5.28;;;2.95;;
21941;SDS011;11135;54.192;15.670;2022-12-24T10:53:03;17.10;;;7.47;;
21941;SDS011;11135;54.192;15.670;2022-12-24T10:56:10;7.63;;;4.40;;
21941;SDS011;11135;54.192;15.670;2022-12-24T10:59:22;6.20;;;3.08;;
21941;SDS011;11135;54.192;15.670;2022-12-24T11:02:29;6.63;;;4.05;;
21941;SDS011;11135;54.192;15.670;2022-12-24T11:05:35;5.97;;;2.75;;
21941;SDS011;11135;54.192;15.670;2022-12-24T11:08:46;4.75;;;2.33;;
21941;SDS011;11135;54.192;15.670;2022-12-24T11:11:51;5.15;;;2.60;;
21941;SDS011;11135;54.192;15.670;2022-12-24T11:14:58;4.55;;;2.38;;
21941;SDS011;11135;54.192;15.670;2022-12-24T11:18:04;5.40;;;2.88;;
21941;SDS011;11135;54.192;15.670;2022-12-24T11:21:10;4.55;;;2.63;;
21941;SDS011;11135;54.192;15.670;2022-12-24T11:24:23;6.22;;;3.05;;
21941;SDS011;11135;54.192;15.670;2022-12-24T11:27:33;7.30;;;4.05;;
21941;SDS011;11135;54.192;15.670;2022-12-24T11:30:42;6.50;;;3.45;;
21941;SDS011;11135;54.192;15.670;2022-12-24T11:33:59;10.40;;;6.07;;
21941;SDS011;11135;54.192;15.670;2022-12-24T11:37:08;7.93;;;4.22;;
21941;SDS011;11135;54.192;15.670;2022-12-24T11:40:21;7.75;;;4.68;;
21941;SDS011;11135;54.192;15.670;2022-12-24T11:43:37;5.95;;;3.72;;
21941;SDS011;11135;54.192;15.670;2022-12-24T11:46:49;5.78;;;2.97;;
21941;SDS011;11135;54.192;15.670;2022-12-24T11:50:01;6.47;;;3.70;;
21941;SDS011;11135;54.192;15.670;2022-12-24T11:53:24;7.47;;;5.13;;
21941;SDS011;11135;54.192;15.670;2022-12-24T11:56:35;7.70;;;4.40;;
21941;SDS011;11135;54.192;15.670;2022-12-24T11:59:41;7.83;;;3.50;;
21941;SDS011;11135;54.192;15.670;2022-12-24T12:02:50;6.45;;;3.50;;
21941;SDS011;11135;54.192;15.670;2022-12-24T12:05:57;5.03;;;3.40;;
21941;SDS011;11135;54.192;15.670;2022-12-24T12:09:04;8.50;;;3.13;;
21941;SDS011;11135;54.192;15.670;2022-12-24T12:12:14;6.28;;;4.00;;
21941;SDS011;11135;54.192;15.670;2022-12-24T12:15:21;7.80;;;4.93;;
21941;SDS011;11135;54.192;15.670;2022-12-24T12:18:31;4.65;;;2.60;;
21941;SDS011;11135;54.192;15.670;2022-12-24T12:21:37;4.75;;;2.40;;
21941;SDS011;11135;54.192;15.670;2022-12-24T12:24:45;4.85;;;2.60;;
21941;SDS011;11135;54.192;15.670;2022-12-24T12:27:57;5.35;;;2.53;;
21941;SDS011;11135;54.192;15.670;2022-12-24T12:31:06;6.15;;;2.45;;
21941;SDS011;11135;54.192;15.670;2022-12-24T12:34:17;4.82;;;2.78;;
21941;SDS011;11135;54.192;15.670;2022-12-24T12:37:26;4.40;;;2.58;;
21941;SDS011;11135;54.192;15.670;2022-12-24T12:40:40;6.15;;;2.78;;
21941;SDS011;11135;54.192;15.670;2022-12-24T12:47:25;5.82;;;2.85;;
21941;SDS011;11135;54.192;15.670;2022-12-24T12:50:32;4.65;;;2.70;;
21941;SDS011;11135;54.192;15.670;2022-12-24T12:53:44;7.78;;;4.70;;
21941;SDS011;11135;54.192;15.670;2022-12-24T12:56:54;6.30;;;3.40;;
21941;SDS011;11135;54.192;15.670;2022-12-24T13:00:01;6.57;;;3.20;;
21941;SDS011;11135;54.192;15.670;2022-12-24T13:09:56;7.68;;;3.55;;
21941;SDS011;11135;54.192;15.670;2022-12-24T13:13:23;6.78;;;3.78;;
21941;SDS011;11135;54.192;15.670;2022-12-24T13:16:38;7.13;;;3.88;;
21941;SDS011;11135;54.192;15.670;2022-12-24T13:19:56;8.07;;;3.92;;
21941;SDS011;11135;54.192;15.670;2022-12-24T13:23:10;7.22;;;4.07;;
21941;SDS011;11135;54.192;15.670;2022-12-24T13:26:18;5.25;;;3.30;;
21941;SDS011;11135;54.192;15.670;2022-12-24T13:29:33;6.53;;;4.13;;
21941;SDS011;11135;54.192;15.670;2022-12-24T13:32:47;8.52;;;4.03;;
21941;SDS011;11135;54.192;15.670;2022-12-24T13:35:56;8.02;;;3.65;;
21941;SDS011;11135;54.192;15.670;2022-12-24T13:39:02;9.13;;;4.97;;
21941;SDS011;11135;54.192;15.670;2022-12-24T13:42:10;7.97;;;4.63;;
21941;SDS011;11135;54.192;15.670;2022-12-24T13:45:45;8.80;;;5.18;;
21941;SDS011;11135;54.192;15.670;2022-12-24T13:48:55;7.43;;;4.22;;
21941;SDS011;11135;54.192;15.670;2022-12-24T13:55:26;10.70;;;5.90;;
21941;SDS011;11135;54.192;15.670;2022-12-24T13:58:35;8.57;;;4.95;;
21941;SDS011;11135;54.192;15.670;2022-12-24T14:01:44;7.53;;;4.93;;
21941;SDS011;11135;54.192;15.670;2022-12-24T14:04:49;10.27;;;5.70;;
21941;SDS011;11135;54.192;15.670;2022-12-24T14:07:55;12.90;;;5.90;;
21941;SDS011;11135;54.192;15.670;2022-12-24T14:11:08;11.55;;;6.07;;
21941;SDS011;11135;54.192;15.670;2022-12-24T14:14:27;12.63;;;6.50;;
21941;SDS011;11135;54.192;15.670;2022-12-24T14:17:33;10.77;;;5.57;;
21941;SDS011;11135;54.192;15.670;2022-12-24T14:20:41;8.75;;;5.25;;
21941;SDS011;11135;54.192;15.670;2022-12-24T14:23:51;9.43;;;5.10;;
21941;SDS011;11135;54.192;15.670;2022-12-24T14:26:59;14.07;;;8.38;;
21941;SDS011;11135;54.192;15.670;2022-12-24T14:30:21;10.50;;;5.32;;
21941;SDS011;11135;54.192;15.670;2022-12-24T14:33:27;8.85;;;4.88;;
21941;SDS011;11135;54.192;15.670;2022-12-24T14:36:32;10.48;;;6.53;;
21941;SDS011;11135;54.192;15.670;2022-12-24T14:39:40;11.90;;;6.07;;
21941;SDS011;11135;54.192;15.670;2022-12-24T14:42:48;13.73;;;8.02;;
21941;SDS011;11135;54.192;15.670;2022-12-24T14:46:03;17.17;;;10.25;;
21941;SDS011;11135;54.192;15.670;2022-12-24T14:49:15;17.08;;;9.93;;
21941;SDS011;11135;54.192;15.670;2022-12-24T14:52:24;13.33;;;7.00;;
21941;SDS011;11135;54.192;15.670;2022-12-24T14:55:51;9.35;;;5.97;;
21941;SDS011;11135;54.192;15.670;2022-12-24T14:58:57;10.38;;;6.65;;
21941;SDS011;11135;54.192;15.670;2022-12-24T15:05:31;11.48;;;5.60;;
21941;SDS011;11135;54.192;15.670;2022-12-24T15:08:37;8.75;;;4.65;;
21941;SDS011;11135;54.192;15.670;2022-12-24T15:11:48;9.90;;;6.07;;
21941;SDS011;11135;54.192;15.670;2022-12-24T15:14:53;10.27;;;6.13;;
21941;SDS011;11135;54.192;15.670;2022-12-24T15:17:59;11.80;;;6.93;;
21941;SDS011;11135;54.192;15.670;2022-12-24T15:21:13;12.57;;;7.45;;
21941;SDS011;11135;54.192;15.670;2022-12-24T15:24:23;11.70;;;7.65;;
21941;SDS011;11135;54.192;15.670;2022-12-24T15:27:31;15.82;;;9.00;;
21941;SDS011;11135;54.192;15.670;2022-12-24T15:30:37;9.95;;;6.80;;
21941;SDS011;11135;54.192;15.670;2022-12-24T15:33:43;10.63;;;6.88;;
21941;SDS011;11135;54.192;15.670;2022-12-24T15:36:51;13.48;;;7.40;;
21941;SDS011;11135;54.192;15.670;2022-12-24T15:39:57;13.18;;;7.63;;
21941;SDS011;11135;54.192;15.670;2022-12-24T15:43:04;19.98;;;9.43;;
21941;SDS011;11135;54.192;15.670;2022-12-24T15:46:16;16.20;;;8.70;;
21941;SDS011;11135;54.192;15.670;2022-12-24T15:49:22;13.07;;;7.40;;
21941;SDS011;11135;54.192;15.670;2022-12-24T15:52:30;12.63;;;7.00;;
21941;SDS011;11135;54.192;15.670;2022-12-24T15:55:37;10.63;;;6.43;;
21941;SDS011;11135;54.192;15.670;2022-12-24T15:58:43;16.45;;;8.65;;
21941;SDS011;11135;54.192;15.670;2022-12-24T16:01:51;11.85;;;6.70;;
21941;SDS011;11135;54.192;15.670;2022-12-24T16:08:24;9.45;;;5.90;;
21941;SDS011;11135;54.192;15.670;2022-12-24T16:11:32;9.73;;;5.70;;
21941;SDS011;11135;54.192;15.670;2022-12-24T16:14:38;9.73;;;5.60;;
21941;SDS011;11135;54.192;15.670;2022-12-24T16:17:46;10.48;;;5.88;;
21941;SDS011;11135;54.192;15.670;2022-12-24T16:20:54;9.88;;;5.93;;
21941;SDS011;11135;54.192;15.670;2022-12-24T16:24:22;14.05;;;8.50;;
21941;SDS011;11135;54.192;15.670;2022-12-24T16:27:28;13.43;;;6.47;;
21941;SDS011;11135;54.192;15.670;2022-12-24T16:30:34;11.80;;;6.60;;
21941;SDS011;11135;54.192;15.670;2022-12-24T16:33:40;10.55;;;6.20;;
21941;SDS011;11135;54.192;15.670;2022-12-24T16:36:45;11.45;;;6.72;;
21941;SDS011;11135;54.192;15.670;2022-12-24T16:39:53;9.88;;;6.32;;
21941;SDS011;11135;54.192;15.670;2022-12-24T16:43:00;10.02;;;6.30;;
21941;SDS011;11135;54.192;15.670;2022-12-24T16:46:18;10.32;;;6.55;;
21941;SDS011;11135;54.192;15.670;2022-12-24T16:49:23;9.68;;;6.05;;
21941;SDS011;11135;54.192;15.670;2022-12-24T16:52:29;10.85;;;6.57;;
21941;SDS011;11135;54.192;15.670;2022-12-24T16:55:37;12.18;;;6.55;;
21941;SDS011;11135;54.192;15.670;2022-12-24T16:58:44;12.63;;;7.93;;
21941;SDS011;11135;54.192;15.670;2022-12-24T17:01:50;14.75;;;7.43;;
21941;SDS011;11135;54.192;15.670;2022-12-24T17:04:56;13.95;;;8.07;;
21941;SDS011;11135;54.192;15.670;2022-12-24T17:08:01;10.90;;;6.45;;
21941;SDS011;11135;54.192;15.670;2022-12-24T17:11:10;13.85;;;9.15;;
21941;SDS011;11135;54.192;15.670;2022-12-24T17:14:15;11.95;;;6.95;;
21941;SDS011;11135;54.192;15.670;2022-12-24T17:17:22;10.80;;;7.75;;
21941;SDS011;11135;54.192;15.670;2022-12-24T17:20:28;15.32;;;8.82;;
21941;SDS011;11135;54.192;15.670;2022-12-24T17:23:33;14.13;;;8.35;;
21941;SDS011;11135;54.192;15.670;2022-12-24T17:26:41;14.52;;;7.80;;
21941;SDS011;11135;54.192;15.670;2022-12-24T17:29:46;14.55;;;8.60;;
21941;SDS011;11135;54.192;15.670;2022-12-24T17:32:51;15.10;;;9.23;;
21941;SDS011;11135;54.192;15.670;2022-12-24T17:35:57;16.88;;;8.82;;
21941;SDS011;11135;54.192;15.670;2022-12-24T17:39:03;15.40;;;8.98;;
21941;SDS011;11135;54.192;15.670;2022-12-24T17:42:11;17.67;;;10.23;;
21941;SDS011;11135;54.192;15.670;2022-12-24T17:45:16;17.67;;;10.95;;
21941;SDS011;11135;54.192;15.670;2022-12-24T17:48:24;11.75;;;7.95;;
21941;SDS011;11135;54.192;15.670;2022-12-24T17:51:30;14.48;;;9.15;;
21941;SDS011;11135;54.192;15.670;2022-12-24T17:54:44;14.02;;;8.52;;
21941;SDS011;11135;54.192;15.670;2022-12-24T17:57:51;14.18;;;9.27;;
21941;SDS011;11135;54.192;15.670;2022-12-24T18:00:58;16.35;;;9.80;;
21941;SDS011;11135;54.192;15.670;2022-12-24T18:04:04;14.73;;;8.60;;
21941;SDS011;11135;54.192;15.670;2022-12-24T18:07:10;14.95;;;9.38;;
21941;SDS011;11135;54.192;15.670;2022-12-24T18:10:15;14.90;;;9.10;;
21941;SDS011;11135;54.192;15.670;2022-12-24T18:13:23;13.00;;;8.30;;
21941;SDS011;11135;54.192;15.670;2022-12-24T18:16:28;15.93;;;9.70;;
21941;SDS011;11135;54.192;15.670;2022-12-24T18:19:35;14.60;;;9.48;;
21941;SDS011;11135;54.192;15.670;2022-12-24T18:22:40;15.60;;;9.57;;
21941;SDS011;11135;54.192;15.670;2022-12-24T18:25:45;13.10;;;7.15;;
21941;SDS011;11135;54.192;15.670;2022-12-24T18:28:54;16.80;;;9.73;;
21941;SDS011;11135;54.192;15.670;2022-12-24T18:32:00;17.10;;;9.90;;
21941;SDS011;11135;54.192;15.670;2022-12-24T18:35:07;15.80;;;8.95;;
21941;SDS011;11135;54.192;15.670;2022-12-24T18:38:13;13.82;;;8.10;;
21941;SDS011;11135;54.192;15.670;2022-12-24T18:41:19;14.68;;;8.80;;
21941;SDS011;11135;54.192;15.670;2022-12-24T18:44:27;15.25;;;9.38;;
21941;SDS011;11135;54.192;15.670;2022-12-24T18:47:33;12.15;;;7.82;;
21941;SDS011;11135;54.192;15.670;2022-12-24T18:50:39;13.18;;;9.07;;
21941;SDS011;11135;54.192;15.670;2022-12-24T18:53:46;14.73;;;9.52;;
21941;SDS011;11135;54.192;15.670;2022-12-24T18:56:52;17.33;;;9.13;;